createdAt,value
2018-07-15T00:00:35.204Z,61.74
2018-07-15T00:02:47.720Z,61.55
2018-07-15T00:05:00.139Z,62.27
2018-07-15T00:07:12.555Z,62.09
2018-07-15T00:09:24.999Z,62.47
2018-07-15T00:11:37.383Z,63.14
2018-07-15T00:13:49.766Z,63.48
2018-07-15T00:16:02.126Z,62.95
2018-07-15T00:18:14.506Z,64.25
2018-07-15T00:20:26.842Z,64.35
2018-07-15T00:22:39.230Z,64.03
2018-07-15T00:24:51.534Z,64.30
2018-07-15T00:27:03.929Z,64.47
2018-07-15T00:29:16.299Z,64.69
2018-07-15T00:31:28.879Z,63.45
2018-07-15T00:33:41.254Z,63.01
2018-07-15T00:35:53.688Z,63.85
2018-07-15T00:38:06.362Z,63.36
2018-07-15T00:40:18.956Z,62.81
2018-07-15T00:42:31.475Z,63.17
2018-07-15T00:44:43.990Z,63.72
2018-07-15T00:46:56.367Z,63.30
2018-07-15T00:49:08.701Z,63.16
2018-07-15T00:51:21.215Z,63.12
2018-07-15T00:53:33.606Z,64.04
2018-07-15T00:55:46.071Z,64.68
2018-07-15T00:57:58.575Z,63.96
2018-07-15T01:00:10.974Z,63.50
2018-07-15T01:02:23.458Z,64.31
2018-07-15T01:04:35.858Z,63.34
2018-07-15T01:06:48.246Z,63.46
2018-07-15T01:09:00.753Z,63.46
2018-07-15T01:11:19.874Z,63.41
2018-07-15T01:13:32.285Z,63.53
2018-07-15T01:15:44.667Z,63.27
2018-07-15T01:17:57.038Z,63.82
2018-07-15T01:20:09.480Z,63.81
2018-07-15T01:22:21.837Z,63.42
2018-07-15T01:24:34.300Z,63.34
2018-07-15T01:26:46.703Z,63.86
2018-07-15T01:28:59.113Z,63.95
2018-07-15T01:31:11.488Z,64.44
2018-07-15T01:33:23.966Z,64.50
2018-07-15T01:35:36.307Z,64.49
2018-07-15T01:37:48.668Z,64.77
2018-07-15T01:40:01.003Z,64.87
2018-07-15T01:42:13.398Z,64.89
2018-07-15T01:44:25.710Z,64.96
2018-07-15T01:46:38.097Z,63.83
2018-07-15T01:48:50.569Z,63.81
2018-07-15T01:51:03.146Z,64.75
2018-07-15T01:53:15.507Z,65.06
2018-07-15T01:55:27.904Z,64.19
2018-07-15T01:57:40.287Z,64.92
2018-07-15T01:59:52.807Z,65.47
2018-07-15T02:02:05.257Z,65.51
2018-07-15T02:04:17.603Z,64.95
2018-07-15T02:06:29.963Z,64.57
2018-07-15T02:08:42.342Z,65.66
2018-07-15T02:10:55.019Z,64.94
2018-07-15T02:13:07.442Z,65.97
2018-07-15T02:15:19.814Z,65.21
2018-07-15T02:17:32.167Z,65.92
2018-07-15T02:19:44.599Z,65.80
2018-07-15T02:21:56.958Z,66.17
2018-07-15T02:24:09.566Z,65.80
2018-07-15T02:26:22.031Z,66.17
2018-07-15T02:28:34.463Z,66.45
2018-07-15T02:30:46.866Z,66.94
2018-07-15T02:32:59.206Z,67.10
2018-07-15T02:35:11.630Z,67.13
2018-07-15T02:37:24.014Z,66.12
2018-07-15T02:39:36.443Z,66.99
2018-07-15T02:41:48.798Z,66.37
2018-07-15T02:44:01.199Z,66.13
2018-07-15T02:46:13.612Z,66.49
2018-07-15T02:48:26.135Z,67.36
2018-07-15T02:50:38.670Z,67.29
2018-07-15T02:52:51.229Z,67.66
2018-07-15T02:55:03.731Z,67.43
2018-07-15T02:57:16.134Z,67.15
2018-07-15T02:59:28.504Z,67.10
2018-07-15T03:01:40.929Z,66.89
2018-07-15T03:03:53.304Z,67.70
2018-07-15T03:06:05.820Z,67.17
2018-07-15T03:08:18.138Z,67.97
2018-07-15T03:10:30.522Z,67.93
2018-07-15T03:12:42.943Z,68.30
2018-07-15T03:14:55.664Z,68.26
2018-07-15T03:17:08.090Z,67.50
2018-07-15T03:19:20.435Z,67.84
2018-07-15T03:21:32.847Z,68.70
2018-07-15T03:23:45.266Z,67.58
2018-07-15T03:25:57.639Z,68.45
2018-07-15T03:28:10.024Z,67.53
2018-07-15T03:30:22.404Z,67.78
2018-07-15T03:32:34.853Z,67.95
2018-07-15T03:34:47.203Z,68.00
2018-07-15T03:36:59.508Z,67.70
2018-07-15T03:39:12.022Z,68.06
2018-07-15T03:41:24.426Z,68.46
2018-07-15T03:43:36.851Z,68.09
2018-07-15T03:45:49.381Z,68.19
2018-07-15T03:48:01.735Z,69.23
2018-07-15T03:50:14.266Z,69.48
2018-07-15T03:52:26.663Z,69.13
2018-07-15T03:54:39.085Z,69.16
2018-07-15T03:56:51.524Z,69.92
2018-07-15T03:59:03.928Z,69.12
2018-07-15T04:01:16.383Z,69.29
2018-07-15T04:03:28.743Z,69.91
2018-07-15T04:05:41.229Z,69.67
2018-07-15T04:07:53.578Z,70.03
2018-07-15T04:10:05.995Z,69.49
2018-07-15T04:12:18.430Z,69.63
2018-07-15T04:14:30.802Z,69.41
2018-07-15T04:16:43.229Z,68.41
2018-07-15T04:18:55.578Z,68.63
2018-07-15T04:21:08.032Z,69.32
2018-07-15T04:23:20.628Z,69.30
2018-07-15T04:25:33.739Z,69.25
2018-07-15T04:27:46.147Z,68.45
2018-07-15T04:29:58.607Z,68.33
2018-07-15T04:32:11.285Z,69.07
2018-07-15T04:34:23.610Z,68.60
2018-07-15T04:36:35.979Z,68.45
2018-07-15T04:38:48.448Z,68.27
2018-07-15T04:41:00.858Z,67.14
2018-07-15T04:43:13.262Z,67.13
2018-07-15T04:45:25.737Z,66.59
2018-07-15T04:47:38.118Z,65.40
2018-07-15T04:49:50.442Z,66.11
2018-07-15T04:52:02.897Z,66.16
2018-07-15T04:54:15.343Z,65.93
2018-07-15T04:56:27.698Z,65.08
2018-07-15T04:58:40.057Z,65.17
2018-07-15T05:00:52.578Z,65.65
2018-07-15T05:03:05.026Z,65.14
2018-07-15T05:05:17.565Z,65.41
2018-07-15T05:07:29.947Z,66.09
2018-07-15T05:09:42.397Z,65.53
2018-07-15T05:11:54.758Z,64.51
2018-07-15T05:14:07.916Z,64.54
2018-07-15T05:16:20.367Z,64.27
2018-07-15T05:18:32.779Z,63.02
2018-07-15T05:20:45.333Z,63.05
2018-07-15T05:22:57.685Z,62.63
2018-07-15T05:25:10.162Z,61.76
2018-07-15T05:27:22.677Z,61.17
2018-07-15T05:29:35.015Z,60.87
2018-07-15T05:31:47.434Z,60.20
2018-07-15T05:33:59.822Z,60.02
2018-07-15T05:36:12.198Z,60.18
2018-07-15T05:38:24.604Z,59.56
2018-07-15T05:40:37.177Z,59.97
2018-07-15T05:42:49.519Z,59.93
2018-07-15T05:45:01.839Z,60.76
2018-07-15T05:47:14.318Z,60.14
2018-07-15T05:49:26.762Z,59.87
2018-07-15T05:51:39.147Z,58.00
2018-07-15T05:53:51.543Z,59.06
2018-07-15T05:56:03.972Z,59.04
2018-07-15T05:58:16.325Z,57.61
2018-07-15T06:00:29.005Z,58.34
2018-07-15T06:02:41.431Z,57.88
2018-07-15T06:04:53.816Z,57.42
2018-07-15T06:07:06.191Z,56.63
2018-07-15T06:09:18.528Z,55.97
2018-07-15T06:11:31.020Z,56.35
2018-07-15T06:13:43.462Z,55.78
2018-07-15T06:15:55.826Z,56.11
2018-07-15T06:18:08.190Z,56.27
2018-07-15T06:20:20.751Z,54.46
2018-07-15T06:22:33.268Z,55.50
2018-07-15T06:24:45.633Z,54.66
2018-07-15T06:26:57.947Z,55.41
2018-07-15T06:29:10.302Z,55.03
2018-07-15T06:31:22.610Z,54.90
2018-07-15T06:33:35.021Z,54.59
2018-07-15T06:35:47.349Z,52.98
2018-07-15T06:37:59.823Z,53.39
2018-07-15T06:40:12.283Z,53.00
2018-07-15T06:42:24.613Z,52.47
2018-07-15T06:44:37.030Z,51.56
2018-07-15T06:46:49.491Z,51.83
2018-07-15T06:49:01.836Z,51.81
2018-07-15T06:51:14.243Z,50.83
2018-07-15T06:53:26.823Z,51.24
2018-07-15T06:55:39.224Z,52.70
2018-07-15T06:57:51.567Z,51.78
2018-07-15T07:00:04.143Z,50.53
2018-07-15T07:02:16.642Z,49.82
2018-07-15T07:04:29.030Z,50.40
2018-07-15T07:06:41.424Z,49.33
2018-07-15T07:08:53.987Z,50.00
2018-07-15T07:11:06.394Z,48.91
2018-07-15T07:13:18.730Z,49.55
2018-07-15T07:15:31.125Z,49.14
2018-07-15T07:17:43.554Z,47.55
2018-07-15T07:19:55.874Z,48.08
2018-07-15T07:22:08.295Z,48.81
2018-07-15T07:24:20.729Z,47.54
2018-07-15T07:26:33.226Z,47.72
2018-07-15T07:28:45.641Z,47.85
2018-07-15T07:30:58.074Z,48.58
2018-07-15T07:33:10.590Z,48.23
2018-07-15T07:35:23.001Z,49.07
2018-07-15T07:37:35.470Z,48.71
2018-07-15T07:39:47.786Z,48.10
2018-07-15T07:42:00.307Z,48.12
2018-07-15T07:44:12.630Z,46.47
2018-07-15T07:46:25.071Z,46.47
2018-07-15T07:48:37.487Z,44.96
2018-07-15T07:50:49.890Z,45.70
2018-07-15T07:53:02.258Z,45.46
2018-07-15T07:55:14.618Z,44.13
2018-07-15T07:57:27.145Z,43.20
2018-07-15T07:59:39.497Z,43.93
2018-07-15T08:01:52.035Z,43.32
2018-07-15T08:04:04.338Z,43.36
2018-07-15T08:06:16.686Z,43.20
2018-07-15T08:08:29.091Z,42.96
2018-07-15T08:10:41.445Z,43.05
2018-07-15T08:12:53.883Z,43.21
2018-07-15T08:15:06.323Z,43.53
2018-07-15T08:17:18.662Z,43.28
2018-07-15T08:19:31.055Z,43.81
2018-07-15T08:21:43.479Z,43.41
2018-07-15T08:23:55.946Z,44.89
2018-07-15T08:26:08.516Z,44.71
2018-07-15T08:28:20.948Z,44.64
2018-07-15T08:30:44.701Z,45.88
2018-07-15T08:32:57.002Z,42.94
2018-07-15T08:35:09.345Z,41.98
2018-07-15T08:37:21.702Z,42.02
2018-07-15T08:39:34.104Z,42.44
2018-07-15T08:41:46.564Z,42.33
2018-07-15T08:43:58.943Z,41.87
2018-07-15T08:46:11.417Z,42.14
2018-07-15T08:48:23.821Z,43.03
2018-07-15T08:50:36.198Z,42.84
2018-07-15T08:52:48.697Z,43.76
2018-07-15T08:55:01.086Z,44.20
2018-07-15T08:57:13.500Z,45.55
2018-07-15T08:59:25.933Z,46.62
2018-07-15T09:01:38.549Z,44.89
2018-07-15T09:03:50.887Z,44.57
2018-07-15T09:06:03.303Z,46.30
2018-07-15T09:08:15.626Z,45.04
2018-07-15T09:10:28.319Z,44.99
2018-07-15T09:12:40.871Z,44.15
2018-07-15T09:14:53.263Z,44.30
2018-07-15T09:17:05.654Z,45.74
2018-07-15T09:19:18.052Z,44.60
2018-07-15T09:21:30.445Z,44.46
2018-07-15T09:23:42.801Z,44.82
2018-07-15T09:25:55.114Z,43.44
2018-07-15T09:28:07.572Z,44.03
2018-07-15T09:30:19.990Z,43.89
2018-07-15T09:32:32.438Z,42.52
2018-07-15T09:34:44.838Z,41.96
2018-07-15T09:36:57.266Z,41.94
2018-07-15T09:39:09.642Z,43.52
2018-07-15T09:41:22.176Z,42.15
2018-07-15T09:43:34.594Z,42.52
2018-07-15T09:45:46.935Z,42.06
2018-07-15T09:47:59.338Z,40.23
2018-07-15T09:50:11.830Z,40.81
2018-07-15T09:52:24.276Z,41.50
2018-07-15T09:54:36.695Z,41.67
2018-07-15T09:56:49.123Z,40.21
2018-07-15T09:59:01.832Z,40.77
2018-07-15T10:01:14.219Z,41.04
2018-07-15T10:03:27.476Z,39.49
2018-07-15T10:05:39.865Z,38.87
2018-07-15T10:07:52.282Z,39.40
2018-07-15T10:10:04.682Z,38.09
2018-07-15T10:12:17.098Z,37.91
2018-07-15T10:14:29.597Z,36.98
2018-07-15T10:16:41.955Z,36.76
2018-07-15T10:18:54.344Z,37.32
2018-07-15T10:21:06.710Z,36.56
2018-07-15T10:23:19.087Z,36.25
2018-07-15T10:25:31.477Z,35.30
2018-07-15T10:27:43.929Z,36.44
2018-07-15T10:29:56.635Z,35.79
2018-07-15T10:32:09.039Z,36.82
2018-07-15T10:34:21.455Z,35.45
2018-07-15T10:36:33.906Z,35.51
2018-07-15T10:38:46.258Z,35.28
2018-07-15T10:40:58.920Z,34.91
2018-07-15T10:43:11.381Z,36.69
2018-07-15T10:45:23.857Z,35.00
2018-07-15T10:47:36.546Z,34.15
2018-07-15T10:49:49.015Z,34.34
2018-07-15T10:52:01.378Z,35.57
2018-07-15T10:54:13.818Z,34.01
2018-07-15T10:56:26.307Z,33.91
2018-07-15T10:58:38.784Z,34.54
2018-07-15T11:00:51.199Z,34.98
2018-07-15T11:03:03.613Z,34.19
2018-07-15T11:05:15.990Z,34.03
2018-07-15T11:07:28.342Z,32.19
2018-07-15T11:09:40.822Z,34.71
2018-07-15T11:11:53.234Z,34.13
2018-07-15T11:14:05.781Z,34.64
2018-07-15T11:16:18.197Z,35.71
2018-07-15T11:18:30.523Z,35.40
2018-07-15T11:20:42.989Z,35.75
2018-07-15T11:22:55.357Z,36.55
2018-07-15T11:25:07.747Z,36.84
2018-07-15T11:27:20.147Z,38.05
2018-07-15T11:29:32.549Z,36.28
2018-07-15T11:31:44.977Z,37.22
2018-07-15T11:33:57.413Z,36.67
2018-07-15T11:36:09.834Z,36.78
2018-07-15T11:38:22.285Z,36.38
2018-07-15T11:40:34.810Z,37.40
2018-07-15T11:42:47.210Z,36.40
2018-07-15T11:44:59.552Z,36.62
2018-07-15T11:47:11.972Z,38.46
2018-07-15T11:49:24.438Z,37.16
2018-07-15T11:51:36.934Z,37.26
2018-07-15T11:53:50.258Z,38.87
2018-07-15T11:56:02.718Z,38.86
2018-07-15T11:58:15.082Z,38.38
2018-07-15T12:00:27.500Z,39.57
2018-07-15T12:02:39.919Z,38.53
2018-07-15T12:04:52.254Z,38.54
2018-07-15T12:07:04.895Z,38.26
2018-07-15T12:09:17.956Z,38.86
2018-07-15T12:11:30.412Z,38.15
2018-07-15T12:13:42.786Z,38.96
2018-07-15T12:15:55.132Z,39.63
2018-07-15T12:18:07.930Z,41.41
2018-07-15T12:20:20.378Z,40.64
2018-07-15T12:22:32.755Z,40.84
2018-07-15T12:24:45.181Z,40.49
2018-07-15T12:26:57.559Z,41.60
2018-07-15T12:29:09.910Z,40.79
2018-07-15T12:31:22.274Z,39.97
2018-07-15T12:33:34.651Z,40.83
2018-07-15T12:35:47.033Z,41.60
2018-07-15T12:37:59.426Z,41.19
2018-07-15T12:40:11.836Z,42.19
2018-07-15T12:42:24.230Z,42.87
2018-07-15T12:44:38.252Z,42.65
2018-07-15T12:46:58.935Z,43.66
2018-07-15T12:49:20.168Z,42.87
2018-07-15T12:51:33.069Z,44.09
2018-07-15T12:53:47.130Z,44.90
2018-07-15T12:55:59.503Z,45.08
2018-07-15T12:58:12.404Z,45.86
2018-07-15T13:00:25.909Z,47.53
2018-07-15T13:02:41.741Z,48.43
2018-07-15T13:04:54.178Z,49.25
2018-07-15T13:07:06.546Z,52.18
2018-07-15T13:09:19.022Z,52.08
2018-07-15T13:11:31.414Z,52.42
2018-07-15T13:13:43.885Z,54.77
2018-07-15T13:15:56.322Z,55.19
2018-07-15T13:18:08.714Z,52.52
2018-07-15T13:20:21.070Z,50.10
2018-07-15T13:22:33.650Z,50.71
2018-07-15T13:24:46.077Z,49.87
2018-07-15T13:26:58.548Z,49.96
2018-07-15T13:29:10.939Z,47.25
2018-07-15T13:31:23.350Z,43.67
2018-07-15T13:33:35.787Z,44.17
2018-07-15T13:35:48.123Z,45.32
2018-07-15T13:38:00.512Z,42.17
2018-07-15T13:40:12.922Z,41.10
2018-07-15T13:42:25.333Z,40.53
2018-07-15T13:44:37.766Z,38.82
2018-07-15T13:46:50.236Z,39.33
2018-07-15T13:49:02.718Z,36.70
2018-07-15T13:51:15.155Z,36.58
2018-07-15T13:53:27.514Z,37.06
2018-07-15T13:55:40.380Z,36.99
2018-07-15T13:57:52.845Z,38.21
2018-07-15T14:00:06.430Z,36.81
2018-07-15T14:02:18.777Z,37.08
2018-07-15T14:04:31.213Z,36.98
2018-07-15T14:06:43.659Z,37.99
2018-07-15T14:08:56.126Z,38.65
2018-07-15T14:11:09.365Z,38.54
2018-07-15T14:13:21.747Z,38.85
2018-07-15T14:15:34.269Z,38.94
2018-07-15T14:17:46.653Z,39.54
2018-07-15T14:19:59.166Z,40.73
2018-07-15T14:22:11.593Z,39.95
2018-07-15T14:24:23.904Z,40.58
2018-07-15T14:26:36.443Z,39.09
2018-07-15T14:28:48.887Z,39.96
2018-07-15T14:31:01.239Z,39.77
2018-07-15T14:33:13.642Z,39.31
2018-07-15T14:35:25.993Z,40.59
2018-07-15T14:37:39.546Z,39.96
2018-07-15T14:39:51.883Z,40.90
2018-07-15T14:42:04.655Z,41.26
2018-07-15T14:44:17.035Z,40.85
2018-07-15T14:46:29.389Z,40.96
2018-07-15T14:48:41.739Z,39.71
2018-07-15T14:50:54.113Z,39.50
2018-07-15T14:53:06.554Z,38.11
2018-07-15T14:55:18.954Z,39.73
2018-07-15T14:57:31.339Z,37.91
2018-07-15T14:59:43.852Z,39.12
2018-07-15T15:01:56.257Z,39.32
2018-07-15T15:04:08.773Z,39.14
2018-07-15T15:06:21.133Z,37.35
2018-07-15T15:08:33.539Z,36.70
2018-07-15T15:10:46.002Z,38.88
2018-07-15T15:12:58.540Z,38.16
2018-07-15T15:15:10.870Z,37.76
2018-07-15T15:17:23.358Z,38.11
2018-07-15T15:19:35.705Z,39.53
2018-07-15T15:21:48.051Z,38.62
2018-07-15T15:24:00.555Z,38.65
2018-07-15T15:26:12.893Z,37.84
2018-07-15T15:28:25.494Z,37.42
2018-07-15T15:30:37.917Z,37.98
2018-07-15T15:32:50.374Z,37.74
2018-07-15T15:35:02.899Z,38.64
2018-07-15T15:37:15.446Z,37.59
2018-07-15T15:39:28.013Z,36.68
2018-07-15T15:41:41.090Z,36.13
2018-07-15T15:43:54.299Z,36.88
2018-07-15T15:46:06.729Z,39.07
2018-07-15T15:48:19.134Z,39.33
2018-07-15T15:50:31.562Z,39.02
2018-07-15T15:52:44.151Z,39.52
2018-07-15T15:54:57.151Z,40.51
2018-07-15T15:57:09.522Z,40.27
2018-07-15T15:59:21.919Z,40.86
2018-07-15T16:01:34.322Z,39.60
2018-07-15T16:03:46.714Z,40.63
2018-07-15T16:05:59.057Z,39.37
2018-07-15T16:08:12.180Z,39.22
2018-07-15T16:10:26.525Z,40.14
2018-07-15T16:12:38.852Z,40.20
2018-07-15T16:14:51.162Z,40.01
2018-07-15T16:17:03.675Z,40.12
2018-07-15T16:19:16.142Z,40.72
2018-07-15T16:21:28.654Z,39.95
2018-07-15T16:23:41.347Z,39.64
2018-07-15T16:25:53.736Z,40.46
2018-07-15T16:28:06.220Z,39.07
2018-07-15T16:30:18.566Z,38.40
2018-07-15T16:32:31.093Z,38.45
2018-07-15T16:34:43.549Z,38.18
2018-07-15T16:36:56.128Z,38.39
2018-07-15T16:39:08.889Z,39.57
2018-07-15T16:41:21.193Z,40.92
2018-07-15T16:43:33.603Z,40.57
2018-07-15T16:45:45.955Z,39.58
2018-07-15T16:47:58.376Z,38.47
2018-07-15T16:50:10.784Z,39.75
2018-07-15T16:52:23.381Z,40.43
2018-07-15T16:54:35.753Z,40.42
2018-07-15T16:56:48.145Z,39.82
2018-07-15T16:59:00.485Z,39.64
2018-07-15T17:01:12.875Z,38.99
2018-07-15T17:03:25.229Z,40.36
2018-07-15T17:05:37.820Z,39.91
2018-07-15T17:07:50.240Z,39.84
2018-07-15T17:10:02.729Z,40.22
2018-07-15T17:12:15.058Z,41.27
2018-07-15T17:14:27.427Z,41.05
2018-07-15T17:16:40.000Z,41.80
2018-07-15T17:18:52.348Z,41.72
2018-07-15T17:21:04.753Z,42.35
2018-07-15T17:23:17.145Z,39.21
2018-07-15T17:25:29.542Z,43.73
2018-07-15T17:27:42.130Z,41.69
2018-07-15T17:29:54.506Z,40.29
2018-07-15T17:32:06.842Z,40.58
2018-07-15T17:34:19.250Z,38.56
2018-07-15T17:36:31.999Z,39.02
2018-07-15T17:38:44.394Z,37.63
2018-07-15T17:40:56.824Z,39.15
2018-07-15T17:43:09.191Z,39.40
2018-07-15T17:45:21.557Z,38.54
2018-07-15T17:47:33.993Z,39.88
2018-07-15T17:49:46.643Z,39.90
2018-07-15T17:51:58.974Z,40.28
2018-07-15T17:54:11.569Z,40.66
2018-07-15T17:56:23.933Z,41.29
2018-07-15T17:58:36.492Z,38.79
2018-07-15T18:00:48.797Z,40.69
2018-07-15T18:03:01.184Z,41.06
2018-07-15T18:05:13.601Z,41.67
2018-07-15T18:07:26.006Z,42.92
2018-07-15T18:09:38.382Z,41.17
2018-07-15T18:11:50.766Z,41.42
2018-07-15T18:14:03.134Z,40.75
2018-07-15T18:16:15.753Z,39.43
2018-07-15T18:18:28.087Z,38.68
2018-07-15T18:20:40.771Z,39.74
2018-07-15T18:22:53.059Z,39.92
2018-07-15T18:25:05.697Z,39.79
2018-07-15T18:27:18.207Z,40.10
2018-07-15T18:29:30.721Z,40.19
2018-07-15T18:31:43.381Z,41.17
2018-07-15T18:33:55.988Z,42.30
2018-07-15T18:36:08.781Z,42.01
2018-07-15T18:38:21.395Z,42.16
2018-07-15T18:40:34.286Z,43.06
2018-07-15T18:42:46.963Z,42.97
2018-07-15T18:44:59.701Z,43.29
2018-07-15T18:47:12.543Z,42.92
2018-07-15T18:49:25.191Z,43.40
2018-07-15T18:51:37.932Z,42.67
2018-07-15T18:53:50.596Z,42.01
2018-07-15T18:56:03.054Z,40.85
2018-07-15T18:58:15.477Z,42.64
2018-07-15T19:00:28.846Z,43.10
2018-07-15T19:02:41.244Z,42.84
2018-07-15T19:04:53.611Z,42.86
2018-07-15T19:07:06.162Z,43.26
2018-07-15T19:09:18.515Z,43.77
2018-07-15T19:11:30.874Z,43.96
2018-07-15T19:13:43.260Z,43.77
2018-07-15T19:15:55.631Z,45.06
2018-07-15T19:18:08.076Z,44.33
2018-07-15T19:20:20.485Z,45.68
2018-07-15T19:22:32.893Z,45.84
2018-07-15T19:24:45.222Z,46.10
2018-07-15T19:26:57.601Z,46.66
2018-07-15T19:29:09.985Z,46.75
2018-07-15T19:31:22.337Z,47.06
2018-07-15T19:33:34.844Z,46.88
2018-07-15T19:35:47.205Z,47.77
2018-07-15T19:37:59.573Z,47.44
2018-07-15T19:40:12.017Z,48.73
2018-07-15T19:42:24.472Z,48.93
2018-07-15T19:44:36.849Z,49.48
2018-07-15T19:46:49.321Z,49.64
2018-07-15T19:49:01.696Z,48.77
2018-07-15T19:51:14.051Z,49.62
2018-07-15T19:53:26.556Z,50.78
2018-07-15T19:55:38.899Z,50.82
2018-07-15T19:57:51.316Z,50.30
2018-07-15T20:00:04.051Z,51.41
2018-07-15T20:02:16.514Z,51.57
2018-07-15T20:04:28.904Z,52.73
2018-07-15T20:06:41.239Z,53.35
2018-07-15T20:08:53.561Z,52.72
2018-07-15T20:11:06.050Z,53.13
2018-07-15T20:13:18.422Z,54.72
2018-07-15T20:15:30.877Z,53.91
2018-07-15T20:17:43.381Z,53.68
2018-07-15T20:19:55.982Z,53.55
2018-07-15T20:22:08.451Z,54.64
2018-07-15T20:24:20.871Z,55.42
2018-07-15T20:26:33.241Z,55.00
2018-07-15T20:28:45.657Z,55.26
2018-07-15T20:30:58.026Z,55.69
2018-07-15T20:33:10.423Z,56.34
2018-07-15T20:35:22.906Z,55.80
2018-07-15T20:37:35.295Z,55.88
2018-07-15T20:39:47.720Z,56.53
2018-07-15T20:42:00.051Z,55.85
2018-07-15T20:44:12.513Z,56.22
2018-07-15T20:46:24.938Z,55.79
2018-07-15T20:48:37.338Z,55.98
2018-07-15T20:50:49.708Z,56.08
2018-07-15T20:53:02.115Z,55.92
2018-07-15T20:55:14.683Z,56.08
2018-07-15T20:57:27.014Z,56.19
2018-07-15T20:59:39.573Z,55.74
2018-07-15T21:01:51.961Z,56.81
2018-07-15T21:04:05.136Z,56.10
2018-07-15T21:06:17.550Z,56.93
2018-07-15T21:08:29.940Z,56.93
2018-07-15T21:10:42.282Z,56.20
2018-07-15T21:12:54.909Z,55.88
2018-07-15T21:15:07.210Z,56.44
2018-07-15T21:17:19.555Z,56.76
2018-07-15T21:19:31.999Z,57.11
2018-07-15T21:21:44.412Z,56.13
2018-07-15T21:23:56.813Z,56.40
2018-07-15T21:26:09.298Z,56.16
2018-07-15T21:28:21.722Z,56.83
2018-07-15T21:30:34.123Z,56.28
2018-07-15T21:32:46.549Z,55.36
2018-07-15T21:34:58.917Z,55.97
2018-07-15T21:37:11.301Z,55.40
2018-07-15T21:39:23.687Z,54.84
2018-07-15T21:41:36.038Z,54.47
2018-07-15T21:43:48.402Z,54.34
2018-07-15T21:46:00.814Z,54.32
2018-07-15T21:48:13.223Z,54.86
2018-07-15T21:50:25.599Z,54.78
2018-07-15T21:52:37.934Z,55.18
2018-07-15T21:54:50.349Z,54.45
2018-07-15T21:57:02.757Z,54.91
2018-07-15T21:59:15.114Z,54.07
2018-07-15T22:01:43.484Z,54.47
2018-07-15T22:03:55.851Z,53.90
2018-07-15T22:06:18.334Z,53.57
2018-07-15T22:08:40.999Z,54.44
2018-07-15T22:10:53.385Z,54.23
2018-07-15T22:13:05.736Z,54.49
2018-07-15T22:15:18.186Z,55.24
2018-07-15T22:17:30.594Z,54.73
2018-07-15T22:19:43.439Z,54.59
2018-07-15T22:21:55.818Z,53.44
2018-07-15T22:24:08.119Z,53.26
2018-07-15T22:26:20.509Z,53.22
2018-07-15T22:28:32.834Z,54.04
2018-07-15T22:30:45.157Z,53.21
2018-07-15T22:32:57.605Z,53.85
2018-07-15T22:35:10.041Z,52.53
2018-07-15T22:37:22.418Z,52.89
2018-07-15T22:39:34.854Z,53.75
2018-07-15T22:41:47.322Z,52.99
2018-07-15T22:43:59.634Z,53.74
2018-07-15T22:46:11.974Z,53.79
2018-07-15T22:48:24.381Z,53.76
2018-07-15T22:50:36.802Z,54.23
2018-07-15T22:52:49.226Z,53.60
2018-07-15T22:55:01.614Z,54.85
2018-07-15T22:57:14.035Z,54.17
2018-07-15T22:59:26.341Z,54.02
2018-07-15T23:01:38.909Z,54.03
2018-07-15T23:03:51.275Z,53.66
2018-07-15T23:06:14.910Z,53.94
2018-07-15T23:08:28.462Z,53.77
2018-07-15T23:10:40.871Z,54.25
2018-07-15T23:12:53.413Z,54.99
2018-07-15T23:15:05.855Z,54.94
2018-07-15T23:17:18.161Z,55.39
2018-07-15T23:19:30.586Z,55.44
2018-07-15T23:21:42.969Z,55.25
2018-07-15T23:23:55.294Z,56.08
2018-07-15T23:26:07.934Z,55.67
2018-07-15T23:28:20.237Z,56.89
2018-07-15T23:30:33.253Z,56.51
2018-07-15T23:32:45.636Z,57.36
2018-07-15T23:34:58.110Z,57.44
2018-07-15T23:37:10.474Z,57.61
2018-07-15T23:39:22.840Z,56.42
2018-07-15T23:41:35.189Z,56.47
2018-07-15T23:43:47.509Z,56.31
2018-07-15T23:45:59.893Z,56.27
2018-07-15T23:48:12.174Z,55.74
2018-07-15T23:50:24.593Z,56.48
2018-07-15T23:52:36.951Z,56.32
2018-07-15T23:54:49.354Z,56.47
2018-07-15T23:57:01.719Z,56.86
2018-07-15T23:59:14.280Z,56.65
